TAF for UK and Europe - 0152 UTC

RocketRoute Online Flight Planning, FREE trial

Goto METARs

 

TAF for UK and Europe - 19 Feb 2018 - 0152 UTC

ABERDEEN/DYCEEGPD182305Z 1900/1924 16007KT 9999 SCT025 BECMG 1900/1903 6000 -RADZ BKN008 TEMPO 1902/1918 1200 RADZ BKN003 PROB30 TEMPO 1904/1912 0300 FG BKN001 BECMG 1917/1920 9999 NSW SCT025 PROB40 TEMPO 1922/1924 6000 RA BKN012
AMSTERDAM AP SCHIPHOLEHAM182240Z 1900/2006 16006KT 7000 NSC PROB30 TEMPO 1903/1908 4500 BR BECMG 1907/1909 CAVOK PROB30 2001/2006 4000 MIFG BR
BELFAST/ALDERGROVEEGAA182304Z 1900/1924 22007KT 9000 -RA SCT001 BKN012 TEMPO 1900/1902 1500 RA RADZ BKN001 BECMG 1902/1905 9999 NSW FEW007 BKN020 PROB40 1902/1914 3000 BR BKN003 PROB30 TEMPO 1907/1913 0700 FG BKN000 BECMG 1916/1919 30010KT TEMPO 1916/1920 5000 RA BKN008 PROB30 TEMPO 1917/1919 BKN003
BIERSETEBLGCOR 182300Z 1900/2006 17008KT CAVOK
BIRMINGHAMEGBB182259Z 1900/1924 19005KT 6000 BKN005 TEMPO 1900/1912 4000 RADZ BKN003 PROB30 1900/1910 0300 FG BKN001 BECMG 1906/1909 31010KT BECMG 1912/1915 9999 BKN012 BECMG 1915/1918 BKN015
BORDEAUX/MERIGNACLFBD182300Z 1900/2006 11004KT 7000 BKN012 PROB40 1900/2006 1500 DZ OVC004 PROB30 TEMPO 1900/1906 0500 FG OVC002 TX10/1914Z TN07/1906Z
BRESTLFRB182300Z 1900/2006 33007KT 0900 FG VV/// TEMPO 1900/1909 2000 DZ OVC003 BECMG 1912/1915 5000 BKN010 TEMPO 1922/2006 3000 DZ OVC005
BRISTOLEGGD182259Z 1900/1924 19006KT 0200 -RADZ FG BKN001 TEMPO 1900/1912 1500 RADZ BR SCT001 BKN002 BECMG 1906/1909 28010KT BECMG 1912/1915 6000 NSW BKN007 BECMG 1915/1918 9999 SCT025
BRUXELLES NATIONALEBBRCOR 182300Z 1900/2006 18005KT CAVOK
CARDIFFEGFFAMD 190003Z 1900/1924 28008KT 0300 FG BKN001 TEMPO 1900/1902 1000 RADZ TEMPO 1902/1909 8000 NSW SCT001 BECMG 1909/1912 9999 NSW SCT010
DUBLIN AIRPORTEIDW182300Z 1900/1924 26011KT 7000 FEW003 BKN007 TEMPO 1900/1909 2000 BR -DZ BKN003 PROB30 TEMPO 1902/1907 0800 FG BKN001 BECMG 1909/1912 SCT010 BKN020 TEMPO 1917/1920 -RA BKN010 PROB40 TEMPO 1917/1920 5000 BECMG 1919/1921 31015KT BECMG 1921/1924 29010KT
DUESSELDORFEDDL182300Z 1900/2006 17008KT CAVOK BECMG 1913/1916 12003KT
EAST MIDLANDSEGNXAMD 190034Z 1900/1924 19005KT 8000 RA BKN015 BECMG 1900/1903 4000 -RADZ BKN004 PROB30 1900/1910 0300 FG BKN001 BECMG 1906/1909 29010KT BECMG 1909/1912 9999 NSW BKN008 BECMG 1912/1915 BKN012 BECMG 1915/1918 SCT015
EDINBURGHEGPH182305Z 1900/1924 06005KT 8000 -RA SCT015 TEMPO 1900/1907 1200 RADZ BKN004 PROB40 TEMPO 1900/1912 0300 FG BKN001 BECMG 1911/1914 9999 NSW TEMPO 1921/1924 6000 RA BKN008
FRANKFURT/M-FLUGHAFENEDDF182300Z 1900/2006 VRB03KT 9999 FEW020 PROB30 TEMPO 1900/2006 BKN014
GENEVE-COINTRINLSGG182325Z 1900/2006 05005KT 9999 OVC025 TX05/1915Z TNM01/1906Z TNM01/2006Z
GLASGOWEGPF182301Z 1900/1924 04003KT 3000 -DZ BKN007 TEMPO 1900/1910 1100 DZ BR BKN003 TEMPO 1910/1912 6000 NSW BECMG 1912/1915 9999 NSW SCT016 TEMPO 1918/1923 7000 RA BKN010
HANNOVEREDDV182300Z 1900/1924 18004KT CAVOK BECMG 1922/1924 08005KT
COPENHAGEN KASTRUPEKCH182314Z 1900/1924 22008KT 9999 FEW030 BECMG 1910/1912 BKN010 TEMPO 1912/1921 BKN015 BECMG 1921/1923 SCT020
KOELN/BONNEDDK182300Z 1900/2006 12004KT CAVOK
LE BOURGETLFPB182300Z 1900/1924 15006KT CAVOK PROB30 TEMPO 1902/1906 4000 BR BECMG 1909/1911 BKN020 TEMPO 1911/1917 4000 -DZRA BECMG 1913/1916 BKN008 TEMPO 1918/1924 SCT002 BKN004
LILLELFQQ182300Z 1900/2006 16008KT 8000 NSC BECMG 1910/1913 OVC012 TEMPO 1913/1920 2000 DZ OVC006 FM192000 18005KT 8000 OVC006 BECMG 2004/2006 09010KT NSW
LIVERPOOLEGGPAMD 190036Z 1900/1924 17005KT 0300 FG BKN001 TEMPO 1900/1912 4000 RADZ BKN004 BECMG 1902/1905 30010KT BECMG 1912/1915 9999 NSW BKN010 TEMPO 1915/1921 SCT010 BECMG 1921/1924 7000 BKN004
LONDON LUTONEGGWAMD 190004Z 1900/1924 16005KT 6000 BKN004 BECMG 1901/1904 0300 -RADZ FG OVC000 TEMPO 1904/1924 3000 RADZ BKN003 BECMG 1910/1913 5000 -RADZ BKN005 BECMG 1915/1918 33010KT
LONDON GATWICKEGKK182300Z 1900/2006 18003KT 4000 -DZ BR BKN006 PROB30 TEMPO 1900/1910 0300 DZ FG BKN001 TEMPO 1910/2006 RADZ BKN003 BECMG 1912/1915 33010KT
LONDON HEATHROWEGLLAMD 190135Z 1901/2006 18004KT 7000 BKN010 BECMG 1901/1903 BKN006 TEMPO 1901/1912 2000 RADZ BR BKN003 PROB30 TEMPO 1901/1908 1200 PROB30 TEMPO 1912/2006 3500 RADZ BKN004
LONDON STANSTEDEGSS182307Z 1900/2006 15004KT 9999 OVC025 BECMG 1900/1903 5000 -RADZ BKN005 TEMPO 1903/1924 2000 RADZ BKN002 PROB40 1904/1912 0300 FG OVC000 BECMG 1916/1919 33010KT PROB40 1921/2006 0300 FG BKN001
LUXEMBOURGELLX182300Z 1900/2006 13005KT 3000 BR BKN009 BECMG 1908/1910 9999 NSW SCT014 TEMPO 1912/2006 VRB02KT BECMG 1920/1922 BKN012 TEMPO 2000/2006 3000 BR -SG BKN006
LYON-SATOLASLFLL182300Z 1900/2006 34005KT 9999 BKN027 PROB40 TEMPO 1905/1911 2000 BR BKN005 PROB30 TEMPO 1905/1908 0600 FG VV///
MANCHESTEREGCCAMD 190149Z 1901/2006 18005KT 2000 -DZ BR BKN004 TEMPO 1901/1904 1200 RADZ BECMG 1903/1906 31010KT PROB30 1904/1912 0300 DZ FG BKN001 BECMG 1912/1915 9999 NSW BKN006 TEMPO 1915/1921 SCT010 BECMG 1921/1924 6000 BKN004 PROB30 2000/2005 0300 FG BKN001 BECMG 2004/2006 9999 FEW015
NEWCASTLEEGNT182301Z 1900/1924 18005KT 6000 -RA BKN030 BECMG 1900/1903 BKN010 TEMPO 1900/1921 3000 RADZ BR BKN005 PROB40 TEMPO 1902/1920 BKN003 BECMG 1920/1924 9999 NSW SCT025
OOSTENDEEBOSCOR 182300Z 1900/2006 17008KT 9999 SCT025 BKN045 BECMG 1914/1916 SCT004 BKN010 TEMPO 1915/2006 3500 -DZRA BKN004
PARIS ORLYLFPO182300Z 1900/2006 13005KT CAVOK TEMPO 1900/1903 2500 BR TEMPO 1912/1924 4000 -RA BKN014 PROB40 TEMPO 1915/1918 2000 -RA BKN007 PROB30 TEMPO 1918/2006 1500 BR BKN004
PARIS CHARLES DE GAULLELFPG182300Z 1900/2006 15006KT CAVOK PROB30 TEMPO 1902/1906 4000 BR BECMG 1909/1911 BKN020 TEMPO 1911/1917 4000 -DZRA BECMG 1913/1916 BKN008 TEMPO 1918/2006 SCT002 BKN004 TX07/1915Z TN01/1903Z
PRESTWICKEGPK182301Z 1900/1924 20005KT 9999 FEW007 SCT018 BECMG 1900/1903 7000 BKN012 PROB40 TEMPO 1900/1910 3000 -DZ BR BKN005 BECMG 1910/1912 9999 SCT018 TEMPO 1919/1922 7000 RA BKN014
ROTTERDAM AP ZESTIENHOVENEHRD182237Z 1900/2006 17006KT CAVOK PROB30 1903/1908 6000 PROB40 2001/2006 4000 MIFG BR
SHANNONEINN182300Z 1900/1924 23008KT 6000 SCT004 OVC010 TEMPO 1900/1913 3000 -DZ BR BKN004 BECMG 1908/1911 20008KT BECMG 1913/1916 25012KT TEMPO 1913/1916 4000 -RA BKN006 BECMG 1916/1918 31013KT BKN020

RocketRoute Online Flight Planning. FREE trial

ABBREVIATIONS

-light
+heavy
/visual range follows
A01autosite - no precip sensor
A02autosite - precip sensor
ACaltocumulus
ACCaltocumulus castellanus
ACSLaltocumulus standing lenticular cloud
AMDamended
ASaltastratus
ASRaltimeter setting region
AUTOautomated report
BCpatches
BECMGbecoming
BKNbroken (5-7 oktas)
BLblowing
BLWbelow
BRmist
BTNbetween
CAVOK+10KM NoCBs NoCloud -5000ft
CBcumulonimbus cloud
CBMAMcumulonimbus mammatus cloud
CCcloud-cloud lightning
CCSLcirrocumulus standing lenticular cloud
CGcloud-ground lightning
CHIcloud-height indicator
CHINOsky condition at 2nd location not avail
CIcirrus
CIGceiling
CITnear or over large towns
CLDcloud
CLRclear
CLRDcleared contamination
CONScontinuous
CORcorrection
CScirrostratus
CUcumulus
DRVR visibility going down
DPdew point
DRlow drifting
DSduststorm
DSNTdistant
DUwidespread dust
DUCdense upper cloud
DZdrizzle
Eeast
EMBDembedded
FCfunnel cloud
FCSTforecast
FEWfew clouds (1-2 oktas)
FGfog
FLflight level
FMfrom
FROPAfrontal passage
FRQfrequent
FTfeet
FUsmoke
FZfreezing
FZRANOfreezing rain sensor out
Ggust
GRhail
GSsmall hail
HVYheavy
HZhaze
ICice crystals, in-cloud lightning
INTSFintensifying
IRVRinstrumented RVR
ISOLisolated
JTSTjet stream
KMkilometer
KMHkilometer per hour
KTknots
Lleft runway
LANinland or over land
LASTlast observation before break
LCAlocally
LDGlanding
LSTLocal Standard Time
LSQline squall
LTGlightning
LVlight and variable
LWRlower
Mminus
MBmillibars
METARaviation routine weather
MIshallow
MODmoderate
MONabove or covering mountains
MOVmoved/moving/movement
MPSmeters per second
MSminus
MSLmean sea level
MTmountains
MTWmountain waves
Nnorth
N/Anot applicable
NATnorth atlantic
NCDno cloud detected
NDVno directional variation
NSWno significant weather
NEnortheast
NOSIGno significant change expected
NOSPECIno SPECI reports are taken
NWnorthwest
NSCno significant cloud
NSWno significant weather
OCNLoccasional
OVCovercast (8 oktas)
OHDoverhead
Pgreater than (plus)
PEice pellets
PK WNDpeak wind
PNOprecipitation amount not available
POdust/sand whirls (dust devils)
PRpartial
PROP30probability 30%
PROP40probability 40%
PRESFRpressure falling rapidly
PRESRRpressure rising rapidly
PSplus
PWINOprecipitation identifier sensor not avail
PYspray
Rright runway
RArain
RMKremarks
RRRocket Route
RVRRunway Visual Range
RWYrunway
RVRNORVR system not available
Ssouth
SAsand
SCSLstratocumulus standing lenticular cloud
SCTscattered (3-4 oktas)
SEsoutheast
SEVsevere
SFCsurface
SGsnow grains
SHshower(s)
SKCsky clear
SLPsea-level pressure
SLPNOsea-level pressure not available
SMstatute miles
SNsnow
SNOCLOrunway closed due to contamination
SNINCRsnow increasing rapidly
SPECIan unscheduled report taken
SQsqualls
SSsandstorm
STNRstationary
SWsouthwest
TAFterminal aerodrome forecast
TKOFtakeoff
TCUtowering cumulus
TLuntil
TOPcloud top
TROPtropopause
TSthunderstorm
TSNOthunderstorm information not available
TWRtower
URVR visibility going up
UPunknown precipitation
UTCtCoordinated Universal Time
Vvariable
VAvolcanic ash
VCin the vicinity
VISvisibility
VISNOvisibility at secondary location not avail
VRBvariable
VSPvertical speed
VVvertical visibility
Wwest
WG/SOWorking Group for Surface Observations
WNDwind
WSPDwind speed
WSwind shear
WSHFTwind shift
WXweather
Zzulu utc time

RUNWAY REPORTS

METAR Runway Reports may include runway reports which contain information about snow/water coverage and friction coefficient.
A runway report consists of eight digits in five groups (RRRRERCReReRBRBR) with the following interpretation:

RRRR

Runway designator. The numerical identifier of the runway in question.
88 means all runways, 99 indicates repetition of previous report.

If there are two parallel runways, the right one is indicated by adding 50
to its number. For example, runway 04L (or 04) is denoted by 04, whereas 54 means runway 04R.

ER

Type of deposit on runway.

CR

Extent of deposit.

eReR

Depth of deposit.

BRBR

Friction coefficient or braking action

Note: CLRD may replace elements t, e and dd if the runway has been cleared of deposits. For example, 54CLRD95 means runway 04R cleared, braking action good.


Military METAR Colour Codes

BlackAirfield closed for non-Met reasons
RED RedCloud under 200ft, and/or Visibility under 800m
AMB AmberBetter than Red, but cloud under 300ft, and/or Visibility under 1600m
YLO YellowBetter than Amber, but cloud under 700ft, and/or Visibility under 3700m.
GRE GreenBetter than Yellow, but cloud under 1500ft, and/or Visibility under 5km
WHT WhiteBetter than Green, but Cloud under 2500ft, and/or Visibility under 8km
BLU BlueCloud 2500ft or above and Visibility 8km or more
Cloud in this case is the lowest cloudbase designated as SCATTERED or worse.


NOTE use of any of these pages are your own responsibility
Always double check with other sources.